sensor_id;sensor_type;location;lat;lon;timestamp;pressure;altitude;pressure_sealevel;temperature;humidity
40171;BME280;37650;52.790;18.268;2023-04-01T00:02:39;98550.85;;;8.94;100.00
40171;BME280;37650;52.790;18.268;2023-04-01T00:06:01;98546.20;;;8.93;100.00
40171;BME280;37650;52.790;18.268;2023-04-01T00:09:23;98545.64;;;8.90;100.00
40171;BME280;37650;52.790;18.268;2023-04-01T00:12:44;98549.17;;;8.89;100.00
40171;BME280;37650;52.790;18.268;2023-04-01T00:16:06;98544.46;;;8.89;100.00
40171;BME280;37650;52.790;18.268;2023-04-01T00:19:27;98546.94;;;8.88;100.00
40171;BME280;37650;52.790;18.268;2023-04-01T00:22:48;98544.56;;;8.84;100.00
40171;BME280;37650;52.790;18.268;2023-04-01T00:26:10;98540.95;;;8.83;100.00
40171;BME280;37650;52.790;18.268;2023-04-01T00:29:34;98544.98;;;8.80;100.00
40171;BME280;37650;52.790;18.268;2023-04-01T00:32:55;98541.54;;;8.79;100.00
40171;BME280;37650;52.790;18.268;2023-04-01T00:36:19;98542.34;;;8.77;100.00
40171;BME280;37650;52.790;18.268;2023-04-01T00:39:42;98541.64;;;8.75;100.00
40171;BME280;37650;52.790;18.268;2023-04-01T00:43:13;98540.40;;;8.75;100.00
40171;BME280;37650;52.790;18.268;2023-04-01T00:46:35;98540.93;;;8.78;100.00
40171;BME280;37650;52.790;18.268;2023-04-01T00:49:57;98542.75;;;8.76;100.00
40171;BME280;37650;52.790;18.268;2023-04-01T00:53:19;98540.91;;;8.75;100.00
40171;BME280;37650;52.790;18.268;2023-04-01T00:56:48;98539.13;;;8.76;100.00
40171;BME280;37650;52.790;18.268;2023-04-01T01:00:11;98534.70;;;8.74;100.00
40171;BME280;37650;52.790;18.268;2023-04-01T01:03:36;98533.86;;;8.73;100.00
40171;BME280;37650;52.790;18.268;2023-04-01T01:07:07;98531.15;;;8.69;100.00
40171;BME280;37650;52.790;18.268;2023-04-01T01:10:34;98530.48;;;8.68;100.00
40171;BME280;37650;52.790;18.268;2023-04-01T01:28:23;98524.02;;;8.63;100.00
40171;BME280;37650;52.790;18.268;2023-04-01T01:38:41;98524.81;;;8.55;100.00
40171;BME280;37650;52.790;18.268;2023-04-01T01:42:04;98521.66;;;8.55;100.00
40171;BME280;37650;52.790;18.268;2023-04-01T01:45:27;98523.00;;;8.53;100.00
40171;BME280;37650;52.790;18.268;2023-04-01T01:48:51;98524.90;;;8.50;100.00
40171;BME280;37650;52.790;18.268;2023-04-01T01:52:13;98520.67;;;8.51;100.00
40171;BME280;37650;52.790;18.268;2023-04-01T01:55:38;98521.17;;;8.51;100.00
40171;BME280;37650;52.790;18.268;2023-04-01T01:59:05;98516.88;;;8.47;100.00
40171;BME280;37650;52.790;18.268;2023-04-01T02:02:30;98517.96;;;8.46;100.00
40171;BME280;37650;52.790;18.268;2023-04-01T02:05:54;98517.61;;;8.46;100.00
40171;BME280;37650;52.790;18.268;2023-04-01T02:09:17;98516.56;;;8.47;100.00
40171;BME280;37650;52.790;18.268;2023-04-01T02:12:39;98515.67;;;8.47;100.00
40171;BME280;37650;52.790;18.268;2023-04-01T02:16:08;98516.36;;;8.50;100.00
40171;BME280;37650;52.790;18.268;2023-04-01T02:19:39;98515.45;;;8.48;100.00
40171;BME280;37650;52.790;18.268;2023-04-01T02:23:01;98516.83;;;8.45;100.00
40171;BME280;37650;52.790;18.268;2023-04-01T02:26:24;98512.16;;;8.44;100.00
40171;BME280;37650;52.790;18.268;2023-04-01T02:29:47;98515.64;;;8.41;100.00
40171;BME280;37650;52.790;18.268;2023-04-01T02:33:08;98512.30;;;8.42;100.00
40171;BME280;37650;52.790;18.268;2023-04-01T02:36:29;98511.69;;;8.43;100.00
40171;BME280;37650;52.790;18.268;2023-04-01T02:39:51;98515.77;;;8.44;100.00
40171;BME280;37650;52.790;18.268;2023-04-01T02:43:12;98517.09;;;8.46;100.00
40171;BME280;37650;52.790;18.268;2023-04-01T02:46:33;98519.25;;;8.45;100.00
40171;BME280;37650;52.790;18.268;2023-04-01T02:49:54;98519.61;;;8.45;100.00
40171;BME280;37650;52.790;18.268;2023-04-01T02:53:19;98521.91;;;8.42;100.00
40171;BME280;37650;52.790;18.268;2023-04-01T02:56:40;98521.59;;;8.41;100.00
40171;BME280;37650;52.790;18.268;2023-04-01T03:00:02;98525.83;;;8.43;100.00
40171;BME280;37650;52.790;18.268;2023-04-01T03:03:24;98529.39;;;8.45;100.00
40171;BME280;37650;52.790;18.268;2023-04-01T03:06:45;98526.50;;;8.47;100.00
40171;BME280;37650;52.790;18.268;2023-04-01T03:10:07;98522.73;;;8.45;100.00
40171;BME280;37650;52.790;18.268;2023-04-01T03:13:29;98524.65;;;8.45;100.00
40171;BME280;37650;52.790;18.268;2023-04-01T03:16:50;98529.20;;;8.45;100.00
40171;BME280;37650;52.790;18.268;2023-04-01T03:20:11;98528.85;;;8.45;100.00
40171;BME280;37650;52.790;18.268;2023-04-01T03:23:33;98530.64;;;8.44;100.00
40171;BME280;37650;52.790;18.268;2023-04-01T03:26:54;98531.04;;;8.47;100.00
40171;BME280;37650;52.790;18.268;2023-04-01T03:30:15;98533.19;;;8.49;100.00
40171;BME280;37650;52.790;18.268;2023-04-01T03:33:41;98533.83;;;8.50;100.00
40171;BME280;37650;52.790;18.268;2023-04-01T03:37:02;98533.52;;;8.52;100.00
40171;BME280;37650;52.790;18.268;2023-04-01T03:40:25;98537.53;;;8.55;100.00
40171;BME280;37650;52.790;18.268;2023-04-01T03:43:47;98535.87;;;8.48;100.00
40171;BME280;37650;52.790;18.268;2023-04-01T03:47:08;98535.78;;;8.44;100.00
40171;BME280;37650;52.790;18.268;2023-04-01T03:50:30;98537.67;;;8.44;100.00
40171;BME280;37650;52.790;18.268;2023-04-01T03:53:51;98538.90;;;8.44;100.00
40171;BME280;37650;52.790;18.268;2023-04-01T03:57:13;98540.58;;;8.45;100.00
40171;BME280;37650;52.790;18.268;2023-04-01T04:00:34;98542.70;;;8.44;100.00
40171;BME280;37650;52.790;18.268;2023-04-01T04:03:57;98544.97;;;8.44;100.00
40171;BME280;37650;52.790;18.268;2023-04-01T04:07:18;98546.85;;;8.49;100.00
40171;BME280;37650;52.790;18.268;2023-04-01T04:10:56;98549.17;;;8.50;100.00
40171;BME280;37650;52.790;18.268;2023-04-01T04:14:17;98552.53;;;8.47;100.00
40171;BME280;37650;52.790;18.268;2023-04-01T04:17:39;98554.54;;;8.45;100.00
40171;BME280;37650;52.790;18.268;2023-04-01T04:21:00;98561.15;;;8.46;100.00
40171;BME280;37650;52.790;18.268;2023-04-01T04:24:22;98564.91;;;8.44;100.00
40171;BME280;37650;52.790;18.268;2023-04-01T04:27:54;98567.17;;;8.44;100.00
40171;BME280;37650;52.790;18.268;2023-04-01T04:31:20;98565.09;;;8.44;100.00
40171;BME280;37650;52.790;18.268;2023-04-01T04:34:42;98566.74;;;8.46;100.00
40171;BME280;37650;52.790;18.268;2023-04-01T04:38:03;98564.89;;;8.48;100.00
40171;BME280;37650;52.790;18.268;2023-04-01T04:41:27;98563.17;;;8.50;100.00
40171;BME280;37650;52.790;18.268;2023-04-01T04:44:49;98571.77;;;8.53;100.00
40171;BME280;37650;52.790;18.268;2023-04-01T04:48:11;98565.98;;;8.53;100.00
40171;BME280;37650;52.790;18.268;2023-04-01T04:51:39;98568.35;;;8.55;100.00
40171;BME280;37650;52.790;18.268;2023-04-01T04:55:01;98575.64;;;8.58;100.00
40171;BME280;37650;52.790;18.268;2023-04-01T04:58:23;98576.89;;;8.58;100.00
40171;BME280;37650;52.790;18.268;2023-04-01T05:01:45;98582.59;;;8.59;100.00
40171;BME280;37650;52.790;18.268;2023-04-01T05:05:07;98582.84;;;8.61;100.00
40171;BME280;37650;52.790;18.268;2023-04-01T05:08:28;98586.02;;;8.57;100.00
40171;BME280;37650;52.790;18.268;2023-04-01T05:11:50;98592.45;;;8.52;100.00
40171;BME280;37650;52.790;18.268;2023-04-01T05:15:12;98593.22;;;8.44;100.00
40171;BME280;37650;52.790;18.268;2023-04-01T05:18:33;98595.20;;;8.37;100.00
40171;BME280;37650;52.790;18.268;2023-04-01T05:21:54;98599.53;;;8.31;100.00
40171;BME280;37650;52.790;18.268;2023-04-01T05:25:16;98603.38;;;8.28;100.00
40171;BME280;37650;52.790;18.268;2023-04-01T05:28:37;98608.69;;;8.27;100.00
40171;BME280;37650;52.790;18.268;2023-04-01T05:31:59;98611.92;;;8.28;100.00
40171;BME280;37650;52.790;18.268;2023-04-01T05:35:20;98611.57;;;8.25;100.00
40171;BME280;37650;52.790;18.268;2023-04-01T05:38:41;98616.05;;;8.23;100.00
40171;BME280;37650;52.790;18.268;2023-04-01T05:42:12;98615.62;;;8.18;100.00
40171;BME280;37650;52.790;18.268;2023-04-01T05:45:34;98620.22;;;8.08;100.00
40171;BME280;37650;52.790;18.268;2023-04-01T05:49:26;98624.75;;;7.98;100.00
40171;BME280;37650;52.790;18.268;2023-04-01T05:52:47;98630.86;;;7.92;100.00
40171;BME280;37650;52.790;18.268;2023-04-01T05:56:09;98636.52;;;7.87;100.00
40171;BME280;37650;52.790;18.268;2023-04-01T05:59:33;98638.10;;;7.87;100.00
40171;BME280;37650;52.790;18.268;2023-04-01T06:02:58;98639.67;;;7.84;100.00
40171;BME280;37650;52.790;18.268;2023-04-01T06:06:26;98644.98;;;7.79;100.00
40171;BME280;37650;52.790;18.268;2023-04-01T06:09:48;98650.02;;;7.73;100.00
40171;BME280;37650;52.790;18.268;2023-04-01T06:13:21;98651.63;;;7.66;100.00
40171;BME280;37650;52.790;18.268;2023-04-01T06:17:19;98658.64;;;7.59;100.00
40171;BME280;37650;52.790;18.268;2023-04-01T06:20:51;98663.71;;;7.48;100.00
40171;BME280;37650;52.790;18.268;2023-04-01T06:24:43;98664.80;;;7.44;100.00
40171;BME280;37650;52.790;18.268;2023-04-01T06:28:39;98669.41;;;7.40;100.00
40171;BME280;37650;52.790;18.268;2023-04-01T06:47:32;98687.87;;;7.05;100.00
40171;BME280;37650;52.790;18.268;2023-04-01T06:51:43;98694.05;;;7.00;100.00
40171;BME280;37650;52.790;18.268;2023-04-01T06:55:31;98697.42;;;6.95;100.00
40171;BME280;37650;52.790;18.268;2023-04-01T06:59:11;98700.05;;;6.92;100.00
40171;BME280;37650;52.790;18.268;2023-04-01T07:02:43;98705.20;;;6.89;100.00
40171;BME280;37650;52.790;18.268;2023-04-01T07:06:10;98707.57;;;6.84;100.00
40171;BME280;37650;52.790;18.268;2023-04-01T07:09:41;98712.10;;;6.84;100.00
40171;BME280;37650;52.790;18.268;2023-04-01T07:13:41;98717.22;;;6.87;100.00
40171;BME280;37650;52.790;18.268;2023-04-01T07:17:31;98724.41;;;6.82;100.00
40171;BME280;37650;52.790;18.268;2023-04-01T07:20:55;98721.31;;;6.77;100.00
40171;BME280;37650;52.790;18.268;2023-04-01T07:24:24;98729.10;;;6.79;100.00
40171;BME280;37650;52.790;18.268;2023-04-01T07:28:01;98730.00;;;6.78;100.00
40171;BME280;37650;52.790;18.268;2023-04-01T07:31:37;98729.79;;;6.74;100.00
40171;BME280;37650;52.790;18.268;2023-04-01T07:46:56;98742.25;;;6.77;100.00
40171;BME280;37650;52.790;18.268;2023-04-01T07:50:27;98740.34;;;6.80;100.00
40171;BME280;37650;52.790;18.268;2023-04-01T08:23:58;98796.29;;;7.09;100.00
40171;BME280;37650;52.790;18.268;2023-04-01T08:27:28;98804.02;;;7.08;100.00
40171;BME280;37650;52.790;18.268;2023-04-01T08:31:06;98805.25;;;7.12;100.00
40171;BME280;37650;52.790;18.268;2023-04-01T08:34:39;98812.92;;;7.15;100.00
40171;BME280;37650;52.790;18.268;2023-04-01T08:38:30;98813.17;;;7.14;100.00
40171;BME280;37650;52.790;18.268;2023-04-01T08:45:53;98813.98;;;7.18;100.00
40171;BME280;37650;52.790;18.268;2023-04-01T08:57:49;98832.04;;;7.38;100.00
40171;BME280;37650;52.790;18.268;2023-04-01T09:08:36;98841.48;;;7.34;100.00
40171;BME280;37650;52.790;18.268;2023-04-01T09:15:56;98850.00;;;7.28;100.00
40171;BME280;37650;52.790;18.268;2023-04-01T09:23:38;98857.44;;;7.14;100.00
40171;BME280;37650;52.790;18.268;2023-04-01T09:27:27;98856.07;;;7.21;100.00
40171;BME280;37650;52.790;18.268;2023-04-01T09:31:26;98862.60;;;7.27;100.00
40171;BME280;37650;52.790;18.268;2023-04-01T09:35:55;98866.36;;;7.28;100.00
40171;BME280;37650;52.790;18.268;2023-04-01T09:39:24;98875.77;;;7.29;100.00
40171;BME280;37650;52.790;18.268;2023-04-01T09:43:21;98879.65;;;7.28;100.00
40171;BME280;37650;52.790;18.268;2023-04-01T09:47:01;98886.86;;;7.30;100.00
40171;BME280;37650;52.790;18.268;2023-04-01T10:28:55;98922.16;;;7.36;100.00
40171;BME280;37650;52.790;18.268;2023-04-01T10:32:39;98924.71;;;7.41;100.00
40171;BME280;37650;52.790;18.268;2023-04-01T10:36:26;98928.84;;;7.43;100.00
40171;BME280;37650;52.790;18.268;2023-04-01T10:44:40;98932.21;;;7.49;100.00
40171;BME280;37650;52.790;18.268;2023-04-01T11:00:18;98942.55;;;7.55;100.00
40171;BME280;37650;52.790;18.268;2023-04-01T11:23:37;98967.84;;;7.59;100.00
40171;BME280;37650;52.790;18.268;2023-04-01T11:31:25;98977.58;;;7.64;100.00
40171;BME280;37650;52.790;18.268;2023-04-01T11:42:46;98984.00;;;7.72;100.00
40171;BME280;37650;52.790;18.268;2023-04-01T12:05:54;99009.72;;;7.70;100.00
40171;BME280;37650;52.790;18.268;2023-04-01T12:13:14;99017.64;;;7.73;100.00
40171;BME280;37650;52.790;18.268;2023-04-01T12:20:22;99028.64;;;7.69;100.00
40171;BME280;37650;52.790;18.268;2023-04-01T12:24:05;99032.14;;;7.65;100.00
40171;BME280;37650;52.790;18.268;2023-04-01T12:27:49;99035.50;;;7.60;100.00
40171;BME280;37650;52.790;18.268;2023-04-01T12:46:22;99059.40;;;7.79;100.00
40171;BME280;37650;52.790;18.268;2023-04-01T13:15:58;99088.17;;;8.39;100.00
40171;BME280;37650;52.790;18.268;2023-04-01T13:27:02;99114.45;;;8.22;100.00
40171;BME280;37650;52.790;18.268;2023-04-01T13:30:32;99118.77;;;8.20;100.00
40171;BME280;37650;52.790;18.268;2023-04-01T13:42:06;99118.63;;;8.34;100.00
40171;BME280;37650;52.790;18.268;2023-04-01T14:15:23;99148.27;;;8.86;100.00
40171;BME280;37650;52.790;18.268;2023-04-01T14:19:11;99152.02;;;8.92;100.00
40171;BME280;37650;52.790;18.268;2023-04-01T14:23:07;99154.14;;;8.83;100.00
40171;BME280;37650;52.790;18.268;2023-04-01T14:30:15;99161.20;;;8.79;100.00
40171;BME280;37650;52.790;18.268;2023-04-01T14:33:43;99161.95;;;8.74;100.00
40171;BME280;37650;52.790;18.268;2023-04-01T14:37:39;99171.03;;;8.71;100.00
40171;BME280;37650;52.790;18.268;2023-04-01T14:49:28;99195.22;;;8.37;100.00
40171;BME280;37650;52.790;18.268;2023-04-01T14:56:41;99206.40;;;8.14;100.00
40171;BME280;37650;52.790;18.268;2023-04-01T15:14:46;99235.70;;;7.91;100.00
40171;BME280;37650;52.790;18.268;2023-04-01T15:25:51;99249.81;;;7.52;100.00
40171;BME280;37650;52.790;18.268;2023-04-01T15:44:37;99279.76;;;6.94;100.00
40171;BME280;37650;52.790;18.268;2023-04-01T15:48:33;99285.42;;;6.88;100.00
40171;BME280;37650;52.790;18.268;2023-04-01T15:55:50;99295.61;;;6.63;100.00
40171;BME280;37650;52.790;18.268;2023-04-01T15:59:50;99300.39;;;6.57;100.00
40171;BME280;37650;52.790;18.268;2023-04-01T16:03:34;99304.73;;;6.43;100.00
40171;BME280;37650;52.790;18.268;2023-04-01T16:10:49;99316.42;;;6.24;100.00
40171;BME280;37650;52.790;18.268;2023-04-01T16:21:43;99338.55;;;6.09;100.00
40171;BME280;37650;52.790;18.268;2023-04-01T16:29:19;99352.10;;;5.95;100.00
40171;BME280;37650;52.790;18.268;2023-04-01T16:32:51;99352.42;;;5.85;100.00
40171;BME280;37650;52.790;18.268;2023-04-01T16:43:57;99375.73;;;5.70;100.00
40171;BME280;37650;52.790;18.268;2023-04-01T16:47:35;99380.81;;;5.64;100.00
40171;BME280;37650;52.790;18.268;2023-04-01T16:51:11;99382.02;;;5.58;100.00
40171;BME280;37650;52.790;18.268;2023-04-01T16:55:41;99385.52;;;5.52;100.00
40171;BME280;37650;52.790;18.268;2023-04-01T16:58:37;99387.86;;;5.44;100.00
40171;BME280;37650;52.790;18.268;2023-04-01T17:02:12;99400.23;;;5.44;100.00
40171;BME280;37650;52.790;18.268;2023-04-01T17:05:48;99410.71;;;5.42;100.00
40171;BME280;37650;52.790;18.268;2023-04-01T17:13:13;99420.20;;;5.39;100.00
40171;BME280;37650;52.790;18.268;2023-04-01T17:21:09;99433.84;;;5.26;100.00
40171;BME280;37650;52.790;18.268;2023-04-01T17:28:36;99442.34;;;5.09;100.00
40171;BME280;37650;52.790;18.268;2023-04-01T17:32:14;99442.92;;;5.01;100.00
40171;BME280;37650;52.790;18.268;2023-04-01T18:02:30;99488.83;;;4.56;100.00
40171;BME280;37650;52.790;18.268;2023-04-01T18:06:32;99494.30;;;4.46;100.00
40171;BME280;37650;52.790;18.268;2023-04-01T18:17:19;99513.80;;;4.32;100.00
40171;BME280;37650;52.790;18.268;2023-04-01T18:24:54;99525.36;;;4.20;100.00
40171;BME280;37650;52.790;18.268;2023-04-01T18:31:54;99539.61;;;4.19;100.00
40171;BME280;37650;52.790;18.268;2023-04-01T18:39:40;99550.94;;;4.10;100.00
40171;BME280;37650;52.790;18.268;2023-04-01T18:54:09;99573.66;;;4.04;100.00
40171;BME280;37650;52.790;18.268;2023-04-01T18:57:49;99582.95;;;3.99;100.00
40171;BME280;37650;52.790;18.268;2023-04-01T19:08:41;99591.64;;;3.92;100.00
40171;BME280;37650;52.790;18.268;2023-04-01T19:16:19;99600.70;;;3.90;100.00
40171;BME280;37650;52.790;18.268;2023-04-01T19:31:05;99618.39;;;3.83;100.00
40171;BME280;37650;52.790;18.268;2023-04-01T19:38:40;99628.96;;;3.83;100.00
40171;BME280;37650;52.790;18.268;2023-04-01T19:46:02;99640.14;;;3.79;100.00
40171;BME280;37650;52.790;18.268;2023-04-01T19:52:58;99648.52;;;3.77;100.00
40171;BME280;37650;52.790;18.268;2023-04-01T20:00:19;99658.70;;;3.71;100.00
40171;BME280;37650;52.790;18.268;2023-04-01T20:03:51;99664.78;;;3.71;100.00
40171;BME280;37650;52.790;18.268;2023-04-01T20:11:01;99676.68;;;3.74;100.00
40171;BME280;37650;52.790;18.268;2023-04-01T20:14:39;99686.50;;;3.69;100.00
40171;BME280;37650;52.790;18.268;2023-04-01T20:22:01;99696.73;;;3.60;100.00
40171;BME280;37650;52.790;18.268;2023-04-01T20:44:12;99720.95;;;3.55;100.00
40171;BME280;37650;52.790;18.268;2023-04-01T20:51:51;99727.95;;;3.52;100.00
40171;BME280;37650;52.790;18.268;2023-04-01T20:55:25;99733.70;;;3.51;100.00
40171;BME280;37650;52.790;18.268;2023-04-01T21:24:35;99762.47;;;3.32;100.00
40171;BME280;37650;52.790;18.268;2023-04-01T21:28:10;99767.05;;;3.27;100.00
40171;BME280;37650;52.790;18.268;2023-04-01T21:31:57;99770.85;;;3.28;100.00
40171;BME280;37650;52.790;18.268;2023-04-01T21:42:34;99771.99;;;3.22;100.00
40171;BME280;37650;52.790;18.268;2023-04-01T21:49:45;99776.21;;;3.19;100.00
40171;BME280;37650;52.790;18.268;2023-04-01T21:53:35;99777.29;;;3.16;100.00
40171;BME280;37650;52.790;18.268;2023-04-01T21:57:20;99776.64;;;3.14;100.00
40171;BME280;37650;52.790;18.268;2023-04-01T22:18:52;99797.01;;;3.08;100.00
40171;BME280;37650;52.790;18.268;2023-04-01T22:22:47;99798.05;;;3.07;100.00
40171;BME280;37650;52.790;18.268;2023-04-01T22:30:25;99805.36;;;3.06;100.00
40171;BME280;37650;52.790;18.268;2023-04-01T22:34:10;99813.73;;;3.04;100.00
40171;BME280;37650;52.790;18.268;2023-04-01T22:41:08;99821.88;;;3.03;100.00
40171;BME280;37650;52.790;18.268;2023-04-01T22:44:41;99827.52;;;3.08;100.00
40171;BME280;37650;52.790;18.268;2023-04-01T22:48:18;99828.19;;;3.09;100.00
40171;BME280;37650;52.790;18.268;2023-04-01T22:51:45;99835.15;;;3.06;100.00
40171;BME280;37650;52.790;18.268;2023-04-01T22:58:42;99835.67;;;3.07;100.00
40171;BME280;37650;52.790;18.268;2023-04-01T23:03:00;99840.18;;;3.06;100.00
40171;BME280;37650;52.790;18.268;2023-04-01T23:06:03;99841.23;;;3.05;100.00
40171;BME280;37650;52.790;18.268;2023-04-01T23:09:29;99847.89;;;3.02;100.00
40171;BME280;37650;52.790;18.268;2023-04-01T23:12:55;99854.17;;;2.98;100.00
40171;BME280;37650;52.790;18.268;2023-04-01T23:16:36;99860.25;;;2.98;100.00
40171;BME280;37650;52.790;18.268;2023-04-01T23:27:17;99875.63;;;3.00;100.00
40171;BME280;37650;52.790;18.268;2023-04-01T23:37:33;99878.38;;;3.02;100.00
40171;BME280;37650;52.790;18.268;2023-04-01T23:40:55;99878.25;;;2.99;100.00
40171;BME280;37650;52.790;18.268;2023-04-01T23:44:17;99881.57;;;2.97;100.00
40171;BME280;37650;52.790;18.268;2023-04-01T23:47:40;99887.91;;;3.00;100.00
40171;BME280;37650;52.790;18.268;2023-04-01T23:51:02;99892.27;;;3.00;100.00
40171;BME280;37650;52.790;18.268;2023-04-01T23:54:30;99894.49;;;3.01;100.00
